createdAt,value
2023-04-26T00:00:32.175Z,98468.68
2023-04-26T00:03:00.234Z,98468.67
2023-04-26T00:05:29.727Z,98471.66
2023-04-26T00:07:57.017Z,98470.93
2023-04-26T00:10:23.976Z,98469.85
2023-04-26T00:12:50.926Z,98470.52
2023-04-26T00:15:17.878Z,98472.17
2023-04-26T00:17:44.804Z,98473.23
2023-04-26T00:20:13.662Z,98474.57
2023-04-26T00:22:41.009Z,98479.95
2023-04-26T00:25:08.597Z,98479.27
2023-04-26T00:27:35.621Z,98480.70
2023-04-26T00:30:03.496Z,98477.39
2023-04-26T00:32:31.428Z,98480.21
2023-04-26T00:34:58.267Z,98481.27
2023-04-26T00:37:25.175Z,98481.91
2023-04-26T00:39:52.044Z,98482.69
2023-04-26T00:42:19.760Z,98478.80
2023-04-26T00:44:46.714Z,98480.98
2023-04-26T00:47:13.680Z,98481.27
2023-04-26T00:49:40.802Z,98480.28
2023-04-26T00:52:07.777Z,98481.73
2023-04-26T00:54:34.634Z,98485.14
2023-04-26T00:57:01.536Z,98481.98
2023-04-26T00:59:28.828Z,98482.61
2023-04-26T01:01:56.495Z,98483.85
2023-04-26T01:04:27.712Z,98483.77
2023-04-26T01:06:56.519Z,98480.46
2023-04-26T01:09:23.615Z,98478.23
2023-04-26T01:11:51.880Z,98478.10
2023-04-26T01:14:18.747Z,98476.61
2023-04-26T01:16:47.137Z,98477.85
2023-04-26T01:19:15.263Z,98475.90
2023-04-26T01:21:42.744Z,98470.20
2023-04-26T01:24:10.262Z,98472.23
2023-04-26T01:26:46.921Z,98470.43
2023-04-26T01:29:18.201Z,98470.45
2023-04-26T01:31:45.583Z,98467.55
2023-04-26T01:34:12.650Z,98461.65
2023-04-26T01:36:39.766Z,98460.20
2023-04-26T01:39:08.085Z,98460.45
2023-04-26T01:41:35.343Z,98458.39
2023-04-26T01:44:02.233Z,98458.55
2023-04-26T01:46:29.275Z,98458.63
2023-04-26T01:48:57.529Z,98460.58
2023-04-26T01:51:24.594Z,98457.99
2023-04-26T01:53:51.549Z,98461.42
2023-04-26T01:56:19.801Z,98458.40
2023-04-26T01:58:46.656Z,98455.42
2023-04-26T02:01:13.823Z,98455.44
2023-04-26T02:03:40.964Z,98449.59
2023-04-26T02:06:08.042Z,98450.77
2023-04-26T02:08:36.117Z,98449.86
2023-04-26T02:11:03.069Z,98444.54
2023-04-26T02:13:30.342Z,98444.25
2023-04-26T02:15:57.353Z,98445.28
2023-04-26T02:18:24.770Z,98445.42
2023-04-26T02:20:51.649Z,98445.35
2023-04-26T02:23:19.448Z,98449.77
2023-04-26T02:25:47.337Z,98446.70
2023-04-26T02:28:14.896Z,98444.04
2023-04-26T02:30:42.556Z,98443.08
2023-04-26T02:33:09.914Z,98442.25
2023-04-26T02:35:39.785Z,98444.11
2023-04-26T02:38:07.024Z,98439.94
2023-04-26T02:40:33.989Z,98436.80
2023-04-26T02:43:01.814Z,98436.50
2023-04-26T02:45:28.711Z,98437.19
2023-04-26T02:47:55.895Z,98440.65
2023-04-26T02:50:23.072Z,98442.02
2023-04-26T02:52:50.232Z,98442.20
2023-04-26T02:55:17.496Z,98441.01
2023-04-26T02:57:44.646Z,98438.72
2023-04-26T03:00:14.292Z,98437.51
2023-04-26T03:02:42.077Z,98438.38
2023-04-26T03:05:09.862Z,98434.66
2023-04-26T03:07:37.409Z,98432.94
2023-04-26T03:10:05.591Z,98433.02
2023-04-26T03:12:32.696Z,98432.90
2023-04-26T03:15:00.396Z,98435.27
2023-04-26T03:17:27.446Z,98433.90
2023-04-26T03:19:54.678Z,98432.48
2023-04-26T03:22:21.664Z,98435.55
2023-04-26T03:24:49.297Z,98434.91
2023-04-26T03:27:16.779Z,98440.05
2023-04-26T03:29:44.389Z,98440.17
2023-04-26T03:32:11.683Z,98439.14
2023-04-26T03:34:38.737Z,98440.16
2023-04-26T03:37:05.912Z,98437.86
2023-04-26T03:39:32.867Z,98435.45
2023-04-26T03:42:01.342Z,98436.30
2023-04-26T03:44:30.490Z,98435.36
2023-04-26T03:46:58.218Z,98431.05
2023-04-26T03:49:25.262Z,98433.64
2023-04-26T03:51:52.174Z,98432.61
2023-04-26T03:54:19.469Z,98433.46
2023-04-26T03:56:46.516Z,98432.45
2023-04-26T03:59:14.932Z,98424.11
2023-04-26T04:01:42.978Z,98429.61
2023-04-26T04:04:10.364Z,98421.64
2023-04-26T04:06:39.539Z,98423.05
2023-04-26T04:09:06.389Z,98428.50
2023-04-26T04:11:33.308Z,98424.52
2023-04-26T04:14:00.381Z,98429.27
2023-04-26T04:16:27.978Z,98429.55
2023-04-26T04:18:56.140Z,98428.98
2023-04-26T04:21:23.103Z,98427.41
2023-04-26T04:23:50.454Z,98430.86
2023-04-26T04:26:17.665Z,98428.09
2023-04-26T04:28:45.807Z,98421.11
2023-04-26T04:31:13.511Z,98421.45
2023-04-26T04:33:40.775Z,98417.53
2023-04-26T04:36:08.572Z,98416.48
2023-04-26T04:38:36.272Z,98421.02
2023-04-26T04:41:04.872Z,98419.67
2023-04-26T04:43:33.149Z,98420.02
2023-04-26T04:46:00.225Z,98418.41
2023-04-26T04:48:27.082Z,98419.88
2023-04-26T04:50:55.694Z,98426.02
2023-04-26T04:53:22.554Z,98428.46
2023-04-26T04:55:49.440Z,98426.92
2023-04-26T04:58:16.957Z,98427.99
2023-04-26T05:00:45.876Z,98424.47
2023-04-26T05:03:23.799Z,98427.22
2023-04-26T05:05:51.187Z,98429.52
2023-04-26T05:08:18.108Z,98431.83
2023-04-26T05:10:45.918Z,98434.27
2023-04-26T05:13:12.920Z,98437.23
2023-04-26T05:15:40.240Z,98430.75
2023-04-26T05:18:07.979Z,98431.31
2023-04-26T05:20:35.010Z,98432.90
2023-04-26T05:23:01.956Z,98432.30
2023-04-26T05:25:29.039Z,98437.95
2023-04-26T05:28:03.455Z,98432.66
2023-04-26T05:30:51.304Z,98434.37
2023-04-26T05:33:28.864Z,98433.63
2023-04-26T05:36:05.239Z,98436.63
2023-04-26T05:38:32.225Z,98440.20
2023-04-26T05:40:59.281Z,98440.61
2023-04-26T05:43:26.533Z,98441.96
2023-04-26T05:45:54.445Z,98442.19
2023-04-26T05:48:22.423Z,98437.50
2023-04-26T05:50:50.091Z,98439.81
2023-04-26T05:53:17.711Z,98438.92
2023-04-26T05:55:44.687Z,98440.64
2023-04-26T05:58:11.572Z,98439.52
2023-04-26T06:00:42.677Z,98444.34
2023-04-26T06:03:09.767Z,98443.92
2023-04-26T06:05:41.593Z,98444.56
2023-04-26T06:08:09.122Z,98444.31
2023-04-26T06:10:36.027Z,98445.38
2023-04-26T06:13:04.136Z,98448.18
2023-04-26T06:15:32.723Z,98443.06
2023-04-26T06:18:00.088Z,98440.02
2023-04-26T06:20:27.893Z,98439.04
2023-04-26T06:22:54.930Z,98442.38
2023-04-26T06:25:22.580Z,98436.10
2023-04-26T06:27:49.591Z,98435.10
2023-04-26T06:30:17.027Z,98436.91
2023-04-26T06:32:47.136Z,98437.69
2023-04-26T06:35:14.434Z,98441.91
2023-04-26T06:37:42.289Z,98446.21
2023-04-26T06:40:11.260Z,98448.93
2023-04-26T06:42:38.390Z,98444.50
2023-04-26T06:45:28.364Z,98445.71
2023-04-26T06:47:55.452Z,98447.23
2023-04-26T06:50:24.168Z,98445.92
2023-04-26T06:52:51.599Z,98447.06
2023-04-26T06:55:19.134Z,98449.70
2023-04-26T06:57:46.053Z,98448.58
2023-04-26T07:00:13.833Z,98447.59
2023-04-26T07:02:41.560Z,98450.31
2023-04-26T07:05:08.985Z,98454.59
2023-04-26T07:07:36.787Z,98451.34
2023-04-26T07:10:04.139Z,98450.86
2023-04-26T07:12:31.324Z,98447.79
2023-04-26T07:14:58.507Z,98445.82
2023-04-26T07:17:25.422Z,98443.21
2023-04-26T07:19:52.536Z,98437.02
2023-04-26T07:22:20.109Z,98431.52
2023-04-26T07:24:46.948Z,98434.35
2023-04-26T07:27:13.810Z,98434.40
2023-04-26T07:29:40.773Z,98434.22
2023-04-26T07:32:07.653Z,98438.73
2023-04-26T07:34:34.476Z,98434.63
2023-04-26T07:37:01.652Z,98435.90
2023-04-26T07:39:28.492Z,98440.71
2023-04-26T07:41:55.809Z,98447.93
2023-04-26T07:44:22.711Z,98447.91
2023-04-26T07:46:49.625Z,98447.61
2023-04-26T07:49:16.452Z,98446.82
2023-04-26T07:51:44.273Z,98449.72
2023-04-26T07:54:11.573Z,98451.33
2023-04-26T07:56:38.444Z,98456.70
2023-04-26T07:59:05.341Z,98454.63
2023-04-26T08:01:32.195Z,98451.30
2023-04-26T08:03:59.484Z,98452.85
2023-04-26T08:06:27.800Z,98454.30
2023-04-26T08:08:54.657Z,98453.96
2023-04-26T08:11:21.967Z,98456.67
2023-04-26T08:13:49.042Z,98461.52
2023-04-26T08:16:15.976Z,98464.38
2023-04-26T08:18:45.366Z,98462.24
2023-04-26T08:21:13.548Z,98461.98
2023-04-26T08:23:40.902Z,98460.05
2023-04-26T08:26:07.906Z,98459.90
2023-04-26T08:28:35.978Z,98464.60
2023-04-26T08:31:02.995Z,98467.13
2023-04-26T08:33:29.971Z,98459.05
2023-04-26T08:35:56.956Z,98460.17
2023-04-26T08:38:24.848Z,98462.50
2023-04-26T08:40:51.875Z,98463.92
2023-04-26T08:43:18.746Z,98465.71
2023-04-26T08:45:49.289Z,98469.20
2023-04-26T08:48:18.362Z,98466.57
2023-04-26T08:50:46.806Z,98469.17
2023-04-26T08:53:15.122Z,98460.63
2023-04-26T08:55:42.961Z,98462.79
2023-04-26T08:58:11.021Z,98457.93
2023-04-26T09:00:37.906Z,98456.66
2023-04-26T09:03:04.965Z,98457.78
2023-04-26T09:05:33.476Z,98460.66
2023-04-26T09:08:02.283Z,98461.20
2023-04-26T09:10:29.542Z,98457.20
2023-04-26T09:12:56.639Z,98456.23
2023-04-26T09:15:24.694Z,98459.52
2023-04-26T09:17:52.363Z,98460.39
2023-04-26T09:20:24.373Z,98460.17
2023-04-26T09:23:08.818Z,98458.90
2023-04-26T09:25:35.800Z,98462.31
2023-04-26T09:28:03.944Z,98456.91
2023-04-26T09:30:31.431Z,98456.52
2023-04-26T09:33:07.263Z,98462.00
2023-04-26T09:35:38.865Z,98462.98
2023-04-26T09:38:12.313Z,98469.33
2023-04-26T09:40:44.438Z,98473.90
2023-04-26T09:43:13.043Z,98474.51
2023-04-26T09:45:51.502Z,98475.42
2023-04-26T09:48:32.232Z,98473.30
2023-04-26T09:51:00.262Z,98476.99
2023-04-26T09:53:37.065Z,98480.30
2023-04-26T09:56:11.483Z,98477.19
2023-04-26T09:58:58.316Z,98481.64
2023-04-26T10:01:26.591Z,98483.98
2023-04-26T10:03:53.876Z,98483.35
2023-04-26T10:06:20.962Z,98484.36
2023-04-26T10:08:47.865Z,98486.74
2023-04-26T10:11:14.794Z,98490.16
2023-04-26T10:13:42.232Z,98490.11
2023-04-26T10:16:10.323Z,98489.38
2023-04-26T10:18:37.537Z,98488.41
2023-04-26T10:21:11.775Z,98493.14
2023-04-26T10:23:38.923Z,98494.80
2023-04-26T10:26:05.814Z,98493.02
2023-04-26T10:28:45.255Z,98491.66
2023-04-26T10:31:12.159Z,98489.05
2023-04-26T10:33:39.439Z,98487.33
2023-04-26T10:36:07.151Z,98490.11
2023-04-26T10:38:35.263Z,98485.11
2023-04-26T10:41:27.837Z,98487.70
2023-04-26T10:43:54.937Z,98485.60
2023-04-26T10:46:39.665Z,98486.88
2023-04-26T10:49:17.171Z,98481.71
2023-04-26T10:52:14.849Z,98483.02
2023-04-26T10:54:46.510Z,98488.02
2023-04-26T10:57:18.594Z,98488.61
2023-04-26T11:00:13.278Z,98493.77
2023-04-26T11:02:53.421Z,98497.06
2023-04-26T11:05:32.977Z,98498.31
2023-04-26T11:08:32.412Z,98498.83
2023-04-26T11:11:02.355Z,98503.72
2023-04-26T11:13:33.101Z,98504.52
2023-04-26T11:16:07.710Z,98500.02
2023-04-26T11:18:34.960Z,98504.00
2023-04-26T11:21:01.946Z,98500.59
2023-04-26T11:23:30.100Z,98503.45
2023-04-26T11:26:02.950Z,98501.40
2023-04-26T11:28:34.630Z,98497.98
2023-04-26T11:31:04.300Z,98498.77
2023-04-26T11:33:34.485Z,98498.23
2023-04-26T11:36:01.996Z,98497.58
2023-04-26T11:38:29.384Z,98496.80
2023-04-26T11:40:57.574Z,98500.93
2023-04-26T11:43:37.910Z,98502.91
2023-04-26T11:46:06.901Z,98499.52
2023-04-26T11:48:35.059Z,98500.73
2023-04-26T11:51:03.868Z,98506.17
2023-04-26T11:53:41.572Z,98505.73
2023-04-26T11:56:18.975Z,98502.19
2023-04-26T11:58:47.198Z,98494.97
2023-04-26T12:01:20.787Z,98496.42
2023-04-26T12:03:50.632Z,98496.73
2023-04-26T12:06:18.224Z,98493.55
2023-04-26T12:08:51.572Z,98491.38
2023-04-26T12:11:18.679Z,98489.08
2023-04-26T12:13:46.337Z,98489.86
2023-04-26T12:16:25.681Z,98489.36
2023-04-26T12:18:53.972Z,98491.63
2023-04-26T12:21:20.974Z,98493.56
2023-04-26T12:23:48.317Z,98492.16
2023-04-26T12:26:15.466Z,98490.35
2023-04-26T12:28:42.478Z,98492.98
2023-04-26T12:31:09.488Z,98495.29
2023-04-26T12:33:36.617Z,98495.73
2023-04-26T12:36:10.445Z,98496.55
2023-04-26T12:38:37.837Z,98497.06
2023-04-26T12:41:05.454Z,98495.92
2023-04-26T12:43:32.349Z,98498.86
2023-04-26T12:45:59.270Z,98499.88
2023-04-26T12:48:26.319Z,98499.63
2023-04-26T12:50:53.269Z,98501.95
2023-04-26T12:53:20.316Z,98502.82
2023-04-26T12:55:47.236Z,98503.38
2023-04-26T12:58:14.359Z,98506.35
2023-04-26T13:00:43.981Z,98504.94
2023-04-26T13:03:14.880Z,98508.37
2023-04-26T13:05:42.029Z,98506.48
2023-04-26T13:08:09.061Z,98503.11
2023-04-26T13:10:36.028Z,98507.38
2023-04-26T13:13:02.928Z,98504.98
2023-04-26T13:15:30.128Z,98507.27
2023-04-26T13:17:57.066Z,98507.94
2023-04-26T13:20:25.985Z,98506.91
2023-04-26T13:22:54.086Z,98506.90
2023-04-26T13:25:21.017Z,98506.02
2023-04-26T13:27:47.844Z,98504.27
2023-04-26T13:30:14.871Z,98508.60
2023-04-26T13:32:41.855Z,98509.73
2023-04-26T13:35:09.181Z,98509.02
2023-04-26T13:37:36.387Z,98511.10
2023-04-26T13:40:04.462Z,98509.73
2023-04-26T13:42:32.569Z,98512.02
2023-04-26T13:45:00.279Z,98509.95
2023-04-26T13:47:28.146Z,98509.00
2023-04-26T13:49:55.132Z,98508.75
2023-04-26T13:52:22.352Z,98510.61
2023-04-26T13:54:55.587Z,98509.89
2023-04-26T13:57:22.449Z,98511.42
2023-04-26T13:59:49.438Z,98517.33
2023-04-26T14:02:16.441Z,98517.95
2023-04-26T14:04:43.548Z,98519.49
2023-04-26T14:07:11.130Z,98520.55
2023-04-26T14:09:38.030Z,98523.11
2023-04-26T14:12:08.695Z,98522.12
2023-04-26T14:14:37.122Z,98518.09
2023-04-26T14:17:03.992Z,98521.21
2023-04-26T14:19:31.410Z,98523.05
2023-04-26T14:21:58.318Z,98521.56
2023-04-26T14:24:25.226Z,98521.64
2023-04-26T14:26:52.127Z,98525.20
2023-04-26T14:29:19.300Z,98525.06
2023-04-26T14:31:46.440Z,98525.50
2023-04-26T14:34:13.527Z,98526.34
2023-04-26T14:36:40.851Z,98522.98
2023-04-26T14:39:07.945Z,98525.79
2023-04-26T14:41:42.899Z,98528.91
2023-04-26T14:44:12.917Z,98528.02
2023-04-26T14:46:39.871Z,98527.38
2023-04-26T14:49:06.848Z,98525.88
2023-04-26T14:51:33.807Z,98525.34
2023-04-26T14:54:00.972Z,98529.38
2023-04-26T14:56:33.252Z,98530.71
2023-04-26T14:59:03.181Z,98531.19
2023-04-26T15:01:30.868Z,98530.39
2023-04-26T15:04:00.086Z,98532.70
2023-04-26T15:06:27.937Z,98529.34
2023-04-26T15:08:54.852Z,98532.91
2023-04-26T15:11:21.754Z,98530.39
2023-04-26T15:13:49.357Z,98526.82
2023-04-26T15:16:16.971Z,98528.59
2023-04-26T15:18:44.306Z,98525.64
2023-04-26T15:21:17.023Z,98525.73
2023-04-26T15:23:44.243Z,98521.17
2023-04-26T15:26:11.427Z,98525.05
2023-04-26T15:28:38.527Z,98521.96
2023-04-26T15:31:06.350Z,98519.38
2023-04-26T15:33:33.347Z,98521.86
2023-04-26T15:36:00.310Z,98517.98
2023-04-26T15:38:27.425Z,98516.18
2023-04-26T15:40:54.989Z,98514.11
2023-04-26T15:43:22.172Z,98511.52
2023-04-26T15:45:49.875Z,98512.18
2023-04-26T15:48:17.083Z,98510.25
2023-04-26T15:50:44.146Z,98511.68
2023-04-26T15:53:11.181Z,98507.70
2023-04-26T15:55:38.133Z,98509.08
2023-04-26T15:58:04.996Z,98515.71
2023-04-26T16:00:32.655Z,98518.36
2023-04-26T16:02:59.715Z,98517.81
2023-04-26T16:05:26.967Z,98517.95
2023-04-26T16:07:54.018Z,98521.11
2023-04-26T16:10:21.295Z,98517.55
2023-04-26T16:12:48.206Z,98521.02
2023-04-26T16:15:15.180Z,98520.75
2023-04-26T16:17:42.092Z,98529.55
2023-04-26T16:20:10.469Z,98532.30
2023-04-26T16:22:37.599Z,98537.27
2023-04-26T16:25:07.119Z,98536.77
2023-04-26T16:27:34.038Z,98535.88
2023-04-26T16:30:01.018Z,98539.27
2023-04-26T16:32:28.276Z,98538.11
2023-04-26T16:34:55.192Z,98536.33
2023-04-26T16:37:22.151Z,98536.86
2023-04-26T16:39:49.202Z,98535.17
2023-04-26T16:42:16.464Z,98535.45
2023-04-26T16:44:43.405Z,98533.77
2023-04-26T16:47:10.371Z,98537.58
2023-04-26T16:49:37.230Z,98540.91
2023-04-26T16:52:04.161Z,98538.61
2023-04-26T16:54:31.112Z,98537.48
2023-04-26T16:56:58.442Z,98537.37
2023-04-26T16:59:25.390Z,98539.23
2023-04-26T17:01:53.360Z,98539.61
2023-04-26T17:04:20.698Z,98543.05
2023-04-26T17:06:47.810Z,98544.05
2023-04-26T17:09:14.934Z,98543.25
2023-04-26T17:11:43.748Z,98544.98
2023-04-26T17:14:11.010Z,98547.84
2023-04-26T17:16:38.126Z,98546.23
2023-04-26T17:19:05.128Z,98545.54
2023-04-26T17:21:32.028Z,98545.70
2023-04-26T17:23:59.030Z,98550.57
2023-04-26T17:26:26.620Z,98549.77
2023-04-26T17:28:54.773Z,98550.70
2023-04-26T17:31:22.162Z,98553.82
2023-04-26T17:33:49.084Z,98555.49
2023-04-26T17:36:16.369Z,98557.19
2023-04-26T17:38:43.810Z,98560.61
2023-04-26T17:41:14.030Z,98561.61
2023-04-26T17:43:40.896Z,98556.48
2023-04-26T17:46:08.103Z,98557.77
2023-04-26T17:48:35.215Z,98555.79
2023-04-26T17:51:02.211Z,98559.64
2023-04-26T17:53:29.605Z,98560.85
2023-04-26T17:55:56.975Z,98560.64
2023-04-26T17:58:23.920Z,98568.02
2023-04-26T18:00:51.171Z,98566.59
2023-04-26T18:03:20.652Z,98571.27
2023-04-26T18:05:48.287Z,98570.02
2023-04-26T18:08:15.609Z,98571.23
2023-04-26T18:10:42.669Z,98577.36
2023-04-26T18:13:11.336Z,98580.23
2023-04-26T18:15:38.934Z,98587.49
2023-04-26T18:18:08.198Z,98585.38
2023-04-26T18:20:37.058Z,98587.71
2023-04-26T18:23:04.384Z,98590.04
2023-04-26T18:25:31.339Z,98595.35
2023-04-26T18:27:58.164Z,98597.11
2023-04-26T18:30:25.038Z,98595.64
2023-04-26T18:32:53.103Z,98597.48
2023-04-26T18:35:20.476Z,98599.91
2023-04-26T18:37:48.720Z,98599.55
2023-04-26T18:40:15.624Z,98601.27
2023-04-26T18:42:45.082Z,98598.73
2023-04-26T18:45:12.902Z,98599.05
2023-04-26T18:47:39.862Z,98597.39
2023-04-26T18:50:07.495Z,98598.31
2023-04-26T18:52:34.928Z,98605.89
2023-04-26T18:55:01.987Z,98608.97
2023-04-26T18:57:28.884Z,98610.95
2023-04-26T18:59:57.390Z,98611.02
2023-04-26T19:02:24.373Z,98604.95
2023-04-26T19:04:51.376Z,98600.27
2023-04-26T19:07:18.361Z,98601.72
2023-04-26T19:09:53.636Z,98600.32
2023-04-26T19:12:21.319Z,98598.73
2023-04-26T19:14:48.218Z,98599.27
2023-04-26T19:17:15.091Z,98600.64
2023-04-26T19:19:42.143Z,98600.05
2023-04-26T19:22:09.019Z,98603.75
2023-04-26T19:24:36.049Z,98604.54
2023-04-26T19:27:03.696Z,98601.65
2023-04-26T19:29:30.643Z,98600.80
2023-04-26T19:31:59.674Z,98600.70
2023-04-26T19:34:26.927Z,98602.74
2023-04-26T19:36:53.757Z,98607.88
2023-04-26T19:39:22.679Z,98606.84
2023-04-26T19:41:51.008Z,98606.77
2023-04-26T19:44:17.879Z,98604.13
2023-04-26T19:46:44.843Z,98601.08
2023-04-26T19:49:12.034Z,98601.77
2023-04-26T19:51:38.992Z,98598.69
2023-04-26T19:54:05.917Z,98597.95
2023-04-26T19:56:32.835Z,98598.41
2023-04-26T19:59:00.138Z,98599.45
2023-04-26T20:01:27.856Z,98599.77
2023-04-26T20:03:55.050Z,98598.77
2023-04-26T20:06:22.145Z,98598.34
2023-04-26T20:08:49.024Z,98600.97
2023-04-26T20:11:16.885Z,98598.17
2023-04-26T20:13:44.075Z,98601.20
2023-04-26T20:16:11.054Z,98593.27
2023-04-26T20:18:38.118Z,98591.20
2023-04-26T20:21:05.243Z,98588.77
2023-04-26T20:23:32.626Z,98589.91
2023-04-26T20:25:59.486Z,98595.97
2023-04-26T20:28:26.868Z,98591.42
2023-04-26T20:30:53.719Z,98595.29
2023-04-26T20:33:20.554Z,98596.77
2023-04-26T20:35:47.493Z,98597.08
2023-04-26T20:38:14.617Z,98597.39
2023-04-26T20:40:41.596Z,98595.86
2023-04-26T20:43:08.561Z,98596.55
2023-04-26T20:45:35.792Z,98597.27
2023-04-26T20:48:02.727Z,98597.90
2023-04-26T20:50:29.849Z,98596.85
2023-04-26T20:52:57.202Z,98600.52
2023-04-26T20:55:24.102Z,98602.39
2023-04-26T20:57:51.068Z,98601.85
2023-04-26T21:00:18.280Z,98602.74
2023-04-26T21:02:45.333Z,98597.27
2023-04-26T21:05:12.442Z,98599.20
2023-04-26T21:07:39.413Z,98602.19
2023-04-26T21:10:06.713Z,98607.73
2023-04-26T21:12:34.454Z,98612.30
2023-04-26T21:15:01.376Z,98615.42
2023-04-26T21:17:28.260Z,98619.35
2023-04-26T21:19:55.111Z,98625.53
2023-04-26T21:22:21.952Z,98629.88
2023-04-26T21:24:51.132Z,98630.11
2023-04-26T21:27:18.136Z,98638.23
2023-04-26T21:29:45.003Z,98643.73
2023-04-26T21:32:11.811Z,98641.71
2023-04-26T21:34:38.725Z,98637.95
2023-04-26T21:37:05.782Z,98637.79
2023-04-26T21:39:32.672Z,98634.34
2023-04-26T21:41:59.513Z,98638.00
2023-04-26T21:44:26.394Z,98641.86
2023-04-26T21:46:53.472Z,98646.19
2023-04-26T21:49:20.659Z,98648.52
2023-04-26T21:51:47.589Z,98655.21
2023-04-26T21:54:14.509Z,98654.23
2023-04-26T21:56:41.443Z,98654.84
2023-04-26T21:59:10.515Z,98656.27
2023-04-26T22:01:37.675Z,98657.46
2023-04-26T22:04:05.014Z,98665.61
2023-04-26T22:06:32.057Z,98666.02
2023-04-26T22:08:58.907Z,98670.13
2023-04-26T22:11:25.794Z,98670.54
2023-04-26T22:13:52.617Z,98678.94
2023-04-26T22:16:19.540Z,98679.59
2023-04-26T22:18:46.686Z,98679.27
2023-04-26T22:21:13.523Z,98678.80
2023-04-26T22:23:40.326Z,98681.89
2023-04-26T22:26:07.206Z,98685.20
2023-04-26T22:28:34.069Z,98694.75
2023-04-26T22:31:00.983Z,98700.91
2023-04-26T22:33:28.016Z,98708.15
2023-04-26T22:35:58.087Z,98712.44
2023-04-26T22:38:25.460Z,98718.26
2023-04-26T22:40:52.768Z,98720.25
2023-04-26T22:43:19.613Z,98720.56
2023-04-26T22:45:46.529Z,98716.15
2023-04-26T22:48:14.154Z,98716.55
2023-04-26T22:50:41.060Z,98717.02
2023-04-26T22:53:08.126Z,98715.08
2023-04-26T22:55:34.986Z,98716.44
2023-04-26T22:58:01.813Z,98710.30
2023-04-26T23:00:28.789Z,98712.28
2023-04-26T23:02:55.749Z,98710.68
2023-04-26T23:05:22.788Z,98713.15
2023-04-26T23:07:49.644Z,98714.65
2023-04-26T23:10:16.706Z,98714.27
2023-04-26T23:12:43.648Z,98712.73
2023-04-26T23:15:11.755Z,98715.42
2023-04-26T23:17:39.013Z,98715.31
2023-04-26T23:20:12.901Z,98714.58
2023-04-26T23:22:43.433Z,98712.64
2023-04-26T23:25:10.448Z,98713.97
2023-04-26T23:27:37.752Z,98710.80
2023-04-26T23:30:05.193Z,98716.00
2023-04-26T23:32:32.074Z,98719.08
2023-04-26T23:34:59.209Z,98718.70
2023-04-26T23:37:26.067Z,98715.69
2023-04-26T23:39:52.853Z,98714.10
2023-04-26T23:42:19.729Z,98716.36
2023-04-26T23:44:46.970Z,98718.10
2023-04-26T23:47:13.980Z,98718.77
2023-04-26T23:49:40.906Z,98718.48
2023-04-26T23:52:07.849Z,98716.17
2023-04-26T23:54:34.698Z,98712.06
2023-04-26T23:57:02.165Z,98711.81
2023-04-26T23:59:29.075Z,98715.48
